Time;durP1;ratioP1;P1;durP2;ratioP2;P2;SDS_P1;SDS_P2;PMS_P1;PMS_P2;Temp;Humidity;BMP_temperature;BMP_pressure;BME280_temperature;BME280_humidity;BME280_pressure;Samples;Min_cycle;Max_cycle;Signal;HPM_P1;HPM_P2
2023/02/09 00:01:56;;;;;;;;;;;;;;;8.78;41.46;102750.81;4939830;28;99585;-67
2023/02/09 00:04:22;;;;;;;;;;;;;;;8.76;41.57;102745.63;4938295;28;127294;-67
2023/02/09 00:06:48;;;;;;;;;;;;;;;8.76;40.96;102756.38;4938986;28;126924;-67
2023/02/09 00:09:14;;;;;;;;;;;;;;;8.75;41.00;102748.50;4922407;28;127602;-67
2023/02/09 00:14:24;;;;;;;;;;;;;;;8.72;41.04;102733.59;4943165;28;99515;-67
2023/02/09 00:16:50;;;;;;;;;;;;;;;8.71;40.77;102729.25;4925354;28;126321;-67
2023/02/09 00:19:17;;;;;;;;;;;;;;;8.71;41.69;102737.31;4941278;28;127774;-67
2023/02/09 00:21:43;;;;;;;;;;;;;;;8.70;41.10;102732.97;4938079;28;118619;-67
2023/02/09 00:24:09;;;;;;;;;;;;;;;8.69;40.73;102742.06;4921647;28;100578;-67
2023/02/09 00:26:35;;;;;;;;;;;;;;;8.69;41.25;102733.19;4939081;28;98189;-67
2023/02/09 00:29:01;;;;;;;;;;;;;;;8.68;41.26;102721.56;4926421;28;108277;-67
2023/02/09 00:31:27;;;;;;;;;;;;;;;8.67;41.03;102721.78;4921649;28;119681;-67
2023/02/09 00:33:53;;;;;;;;;;;;;;;8.66;41.50;102720.97;4921659;28;128051;-67
2023/02/09 00:36:19;;;;;;;;;;;;;;;8.66;40.77;102717.44;4938437;28;114325;-67
2023/02/09 00:38:45;;;;;;;;;;;;;;;8.66;41.24;102720.13;4954572;28;127115;-66
2023/02/09 00:41:11;;;;;;;;;;;;;;;8.64;41.14;102709.56;4953595;28;117631;-67
2023/02/09 00:43:37;;;;;;;;;;;;;;;8.64;41.33;102714.13;4936666;28;97995;-67
2023/02/09 00:46:03;;;;;;;;;;;;;;;8.62;40.71;102706.25;4935969;28;128996;-67
2023/02/09 00:48:29;;;;;;;;;;;;;;;8.63;41.19;102715.16;4921984;28;131286;-67
2023/02/09 00:50:55;;;;;;;;;;;;;;;8.62;40.74;102708.94;4938944;28;117958;-66
2023/02/09 00:53:21;;;;;;;;;;;;;;;8.60;41.17;102698.38;4936658;28;117177;-67
2023/02/09 00:55:47;;;;;;;;;;;;;;;8.60;40.81;102698.38;4936397;28;120769;-66
2023/02/09 00:58:13;;;;;;;;;;;;;;;8.59;41.51;102693.22;4936815;28;123337;-66
2023/02/09 01:00:39;;;;;;;;;;;;;;;8.58;40.78;102699.63;4925808;28;98584;-66
2023/02/09 01:03:05;;;;;;;;;;;;;;;8.58;40.78;102691.56;4936957;28;127993;-67
2023/02/09 01:05:31;;;;;;;;;;;;;;;8.57;41.02;102684.53;4937326;28;129177;-67
2023/02/09 01:07:57;;;;;;;;;;;;;;;8.56;41.16;102688.22;4952709;28;126814;-67
2023/02/09 01:10:23;;;;;;;;;;;;;;;8.55;40.76;102689.25;4937900;28;119157;-67
2023/02/09 01:12:49;;;;;;;;;;;;;;;8.54;41.10;102685.75;4952048;28;108939;-67
2023/02/09 01:15:15;;;;;;;;;;;;;;;8.54;41.12;102682.22;4953648;28;128421;-67
2023/02/09 01:17:40;;;;;;;;;;;;;;;8.54;41.32;102676.84;4937135;28;125289;-67
2023/02/09 01:20:07;;;;;;;;;;;;;;;8.53;40.89;102683.28;4935870;28;117500;-67
2023/02/09 01:22:34;;;;;;;;;;;;;;;8.50;40.89;102689.88;4936542;28;98549;-67
2023/02/09 01:25:00;;;;;;;;;;;;;;;8.50;41.35;102680.97;4938453;28;121702;-67
2023/02/09 01:27:26;;;;;;;;;;;;;;;8.50;41.60;102687.19;4936903;28;100700;-67
2023/02/09 01:29:52;;;;;;;;;;;;;;;8.48;41.12;102683.84;4941583;28;98177;-67
2023/02/09 01:32:18;;;;;;;;;;;;;;;8.47;41.16;102676.81;4952939;28;127775;-67
2023/02/09 01:34:44;;;;;;;;;;;;;;;8.47;41.59;102679.50;4952882;28;126584;-67
2023/02/09 01:37:10;;;;;;;;;;;;;;;8.46;40.94;102675.16;4954601;28;126577;-66
2023/02/09 01:39:36;;;;;;;;;;;;;;;8.45;41.54;102678.03;4937699;28;117293;-67
2023/02/09 01:42:03;;;;;;;;;;;;;;;8.44;41.52;102677.22;4935677;28;127156;-67
2023/02/09 01:44:29;;;;;;;;;;;;;;;8.44;41.21;102673.69;4937123;28;100125;-66
2023/02/09 01:46:55;;;;;;;;;;;;;;;8.42;40.79;102670.41;4954409;28;99972;-67
2023/02/09 01:49:25;;;;;;;;;;;;;;;8.41;41.36;102671.41;4921157;28;119523;-67
2023/02/09 01:52:01;;;;;;;;;;;;;;;8.41;41.42;102668.72;4937110;28;98320;-66
2023/02/09 01:54:35;;;;;;;;;;;;;;;8.38;41.08;102661.91;4954301;28;98677;-67
2023/02/09 01:57:12;;;;;;;;;;;;;;;8.38;41.07;102659.22;4934573;28;100609;-67
2023/02/09 01:59:39;;;;;;;;;;;;;;;8.37;41.31;102657.56;4937766;28;118145;-67
2023/02/09 02:02:05;;;;;;;;;;;;;;;8.36;40.98;102654.00;4935633;28;124562;-67
2023/02/09 02:04:32;;;;;;;;;;;;;;;8.36;41.07;102654.00;4936745;28;98961;-66
2023/02/09 02:07:10;;;;;;;;;;;;;;;8.35;40.97;102648.81;4920956;28;103184;-67
2023/02/09 02:09:36;;;;;;;;;;;;;;;8.35;40.55;102656.88;4934076;28;98278;-67
2023/02/09 02:12:02;;;;;;;;;;;;;;;8.33;40.97;102649.03;4950213;28;126474;-67
2023/02/09 02:14:33;;;;;;;;;;;;;;;8.34;41.46;102657.91;4954346;28;116299;-67
2023/02/09 02:17:22;;;;;;;;;;;;;;;8.31;41.27;102653.75;4935238;28;114449;-67
2023/02/09 02:19:57;;;;;;;;;;;;;;;8.31;41.39;102648.38;4952505;28;115050;-67
2023/02/09 02:22:53;;;;;;;;;;;;;;;8.32;40.96;102649.22;4952924;28;119030;-67
2023/02/09 02:25:49;;;;;;;;;;;;;;;8.29;40.93;102650.47;4953865;28;98924;-67
2023/02/09 02:28:34;;;;;;;;;;;;;;;8.28;41.26;102645.25;4952224;28;98329;-67
2023/02/09 02:31:33;;;;;;;;;;;;;;;8.26;40.87;102642.78;4956200;28;99478;-67
2023/02/09 02:34:06;;;;;;;;;;;;;;;8.26;41.19;102653.53;4955850;28;98263;-67
2023/02/09 02:36:47;;;;;;;;;;;;;;;8.23;40.81;102653.09;4956016;28;124854;-67
2023/02/09 02:39:36;;;;;;;;;;;;;;;8.20;41.19;102648.13;4956298;28;97992;-67
2023/02/09 02:42:47;;;;;;;;;;;;;;;8.16;41.16;102653.06;4935927;28;110584;-67
2023/02/09 02:45:31;;;;;;;;;;;;;;;8.12;40.84;102655.31;4935264;28;98632;-67
2023/02/09 02:48:10;;;;;;;;;;;;;;;8.10;40.98;102643.13;4938246;28;125669;-67
2023/02/09 02:50:38;;;;;;;;;;;;;;;8.06;41.02;102634.63;4923644;28;121135;-67
2023/02/09 02:53:04;;;;;;;;;;;;;;;8.05;40.94;102635.63;4953911;28;98123;-66
2023/02/09 02:55:31;;;;;;;;;;;;;;;8.03;41.35;102635.03;4933090;28;128619;-67
2023/02/09 02:57:59;;;;;;;;;;;;;;;8.02;41.35;102632.53;4938738;28;120234;-67
2023/02/09 03:00:30;;;;;;;;;;;;;;;7.99;41.30;102624.88;4938999;28;119910;-67
2023/02/09 03:02:58;;;;;;;;;;;;;;;7.99;40.82;102624.88;4941253;28;99498;-67
2023/02/09 03:05:24;;;;;;;;;;;;;;;7.98;41.32;102625.91;4955222;28;104847;-67
2023/02/09 03:07:50;;;;;;;;;;;;;;;7.96;41.16;102628.78;4937853;28;128083;-67
2023/02/09 03:10:33;;;;;;;;;;;;;;;7.94;41.62;102628.16;4954066;28;127852;-67
2023/02/09 03:13:17;;;;;;;;;;;;;;;7.93;40.95;102623.78;4921768;28;98144;-67
2023/02/09 03:15:58;;;;;;;;;;;;;;;7.92;41.26;102624.81;4935088;28;98114;-67
2023/02/09 03:18:48;;;;;;;;;;;;;;;7.90;41.21;102626.03;4925255;28;99220;-67
2023/02/09 03:21:41;;;;;;;;;;;;;;;7.89;41.19;102614.47;4939275;28;105271;-67
2023/02/09 03:24:31;;;;;;;;;;;;;;;7.89;41.24;102619.84;4919861;28;98086;-67
2023/02/09 03:27:15;;;;;;;;;;;;;;;7.87;41.38;102613.84;4958915;28;98430;-67
2023/02/09 03:29:42;;;;;;;;;;;;;;;7.85;41.13;102616.72;4926261;28;99063;-67
2023/02/09 03:32:11;;;;;;;;;;;;;;;7.83;41.07;102613.41;4948082;28;129024;-67
2023/02/09 03:34:37;;;;;;;;;;;;;;;7.83;41.20;102613.41;4955754;28;117850;-67
2023/02/09 03:37:03;;;;;;;;;;;;;;;7.83;40.93;102610.72;4925757;28;128628;-67
2023/02/09 03:39:29;;;;;;;;;;;;;;;7.82;40.75;102602.84;4922859;28;129183;-67
2023/02/09 03:41:55;;;;;;;;;;;;;;;7.82;41.08;102610.91;4939395;28;127819;-67
2023/02/09 03:44:26;;;;;;;;;;;;;;;7.81;40.98;102609.25;4956232;28;118625;-67
2023/02/09 03:46:54;;;;;;;;;;;;;;;7.80;41.40;102602.25;4938666;28;98426;-67
2023/02/09 03:49:20;;;;;;;;;;;;;;;7.79;41.26;102597.91;4939451;28;114252;-67
2023/02/09 03:51:46;;;;;;;;;;;;;;;7.77;40.76;102599.94;4922153;28;127939;-67
2023/02/09 03:54:12;;;;;;;;;;;;;;;7.76;40.79;102601.81;4957227;28;98060;-67
2023/02/09 03:56:37;;;;;;;;;;;;;;;7.75;41.00;102600.16;4941054;28;128142;-67
2023/02/09 03:59:04;;;;;;;;;;;;;;;7.76;40.57;102593.75;4918160;28;128230;-67
2023/02/09 04:01:32;;;;;;;;;;;;;;;7.75;40.96;102593.94;4936953;28;122830;-67
2023/02/09 04:03:59;;;;;;;;;;;;;;;7.74;41.00;102595.81;4919437;28;98016;-67
2023/02/09 04:06:25;;;;;;;;;;;;;;;7.73;41.10;102593.31;4954408;28;98364;-67
2023/02/09 04:08:51;;;;;;;;;;;;;;;7.72;40.92;102594.34;4954576;28;128131;-67
2023/02/09 04:11:16;;;;;;;;;;;;;;;7.72;41.21;102592.47;4817685;28;127445;-67
2023/02/09 04:13:42;;;;;;;;;;;;;;;7.71;41.00;102587.31;4938294;28;98074;-67
2023/02/09 04:16:08;;;;;;;;;;;;;;;7.71;41.16;102587.31;4921261;28;128863;-67
2023/02/09 04:18:34;;;;;;;;;;;;;;;7.69;41.06;102584.81;4921806;28;128896;-67
2023/02/09 04:21:00;;;;;;;;;;;;;;;7.70;41.43;102580.28;4941246;28;115954;-67
2023/02/09 04:23:26;;;;;;;;;;;;;;;7.69;40.96;102576.75;4920370;28;118498;-67
2023/02/09 04:25:52;;;;;;;;;;;;;;;7.69;41.20;102575.94;4922628;28;128110;-67
2023/02/09 04:28:18;;;;;;;;;;;;;;;7.67;41.00;102575.31;4953263;28;127732;-67
2023/02/09 04:30:44;;;;;;;;;;;;;;;7.68;41.26;102582.34;4937669;28;127897;-66
2023/02/09 04:33:10;;;;;;;;;;;;;;;7.67;41.50;102569.94;4954675;28;117896;-66
2023/02/09 04:35:36;;;;;;;;;;;;;;;7.66;41.00;102577.16;4937932;28;98335;-67
2023/02/09 04:38:02;;;;;;;;;;;;;;;7.65;40.82;102578.19;4952732;28;128189;-67
2023/02/09 04:40:28;;;;;;;;;;;;;;;7.65;40.99;102574.66;4953662;28;128507;-67
2023/02/09 04:42:54;;;;;;;;;;;;;;;7.64;41.16;102571.16;4937261;28;118819;-67
2023/02/09 04:45:20;;;;;;;;;;;;;;;7.62;40.81;102574.06;4951803;28;128979;-67
2023/02/09 04:47:45;;;;;;;;;;;;;;;7.62;41.08;102559.78;4933266;28;127273;-66
2023/02/09 04:50:12;;;;;;;;;;;;;;;7.61;40.84;102564.31;4938174;28;128096;-67
2023/02/09 04:52:37;;;;;;;;;;;;;;;7.62;40.64;102562.47;4934209;28;98266;-67
2023/02/09 04:55:04;;;;;;;;;;;;;;;7.60;41.06;102561.84;4955558;28;129666;-67
2023/02/09 05:00:14;;;;;;;;;;;;;;;7.61;40.86;102566.19;4950067;28;99542;-66
2023/02/09 05:02:40;;;;;;;;;;;;;;;7.59;40.74;102565.56;4928196;28;110839;-66
2023/02/09 05:05:06;;;;;;;;;;;;;;;7.57;41.03;102555.00;4934184;28;130975;-66
2023/02/09 05:07:32;;;;;;;;;;;;;;;7.57;41.05;102557.69;4938549;28;102431;-66
2023/02/09 05:09:58;;;;;;;;;;;;;;;7.57;40.95;102559.53;4953828;28;127322;-67
2023/02/09 05:12:24;;;;;;;;;;;;;;;7.56;40.95;102569.47;4903487;28;119178;-67
2023/02/09 05:14:50;;;;;;;;;;;;;;;7.55;41.01;102558.94;4918258;28;127788;-67
2023/02/09 05:17:19;;;;;;;;;;;;;;;7.54;41.38;102560.75;4917198;28;128228;-66
2023/02/09 05:19:46;;;;;;;;;;;;;;;7.53;40.99;102556.41;4919702;28;98029;-67
2023/02/09 05:22:12;;;;;;;;;;;;;;;7.54;40.90;102562.63;4921211;28;98282;-66
2023/02/09 05:24:38;;;;;;;;;;;;;;;7.53;41.03;102566.34;4934303;28;125800;-66
2023/02/09 05:27:04;;;;;;;;;;;;;;;7.53;41.24;102567.16;4916913;28;127791;-66
2023/02/09 05:29:30;;;;;;;;;;;;;;;7.52;40.96;102562.81;4917930;28;128178;-67
2023/02/09 05:31:56;;;;;;;;;;;;;;;7.52;40.68;102560.13;4918294;28;117635;-67
2023/02/09 05:34:22;;;;;;;;;;;;;;;7.52;41.39;102556.63;4916504;28;128109;-67
2023/02/09 05:36:48;;;;;;;;;;;;;;;7.56;41.36;102558.72;4930515;28;128456;-67
2023/02/09 05:39:14;;;;;;;;;;;;;;;7.63;41.18;102553.41;4917069;28;128338;-67
2023/02/09 05:44:24;;;;;;;;;;;;;;;7.74;41.27;102560.91;4917466;28;98802;-67
2023/02/09 05:46:50;;;;;;;;;;;;;;;7.78;40.95;102551.44;4917654;28;127731;-67
2023/02/09 05:49:16;;;;;;;;;;;;;;;7.83;41.34;102545.47;4935941;28;127739;-67
2023/02/09 05:51:42;;;;;;;;;;;;;;;7.84;41.10;102547.94;4932176;28;115546;-67
2023/02/09 05:54:08;;;;;;;;;;;;;;;7.86;41.08;102556.63;4917494;28;128168;-67
2023/02/09 05:56:34;;;;;;;;;;;;;;;7.88;41.17;102559.94;4931410;28;128314;-67
2023/02/09 05:59:00;;;;;;;;;;;;;;;7.90;40.92;102565.13;4916560;28;98105;-67
2023/02/09 06:01:26;;;;;;;;;;;;;;;7.92;41.36;102556.84;4916181;28;117855;-68
2023/02/09 06:03:52;;;;;;;;;;;;;;;7.92;41.18;102552.31;4917988;28;128226;-67
2023/02/09 06:06:18;;;;;;;;;;;;;;;7.94;40.92;102557.47;4900223;28;127826;-67
2023/02/09 06:08:43;;;;;;;;;;;;;;;7.92;40.86;102560.38;4902315;28;127205;-67
2023/02/09 06:11:09;;;;;;;;;;;;;;;7.95;41.13;102551.09;4922475;28;116978;-67
2023/02/09 06:13:35;;;;;;;;;;;;;;;7.94;40.87;102560.16;4913056;28;128223;-67
2023/02/09 06:16:01;;;;;;;;;;;;;;;7.94;41.28;102560.16;4926416;28;128323;-67
2023/02/09 06:18:27;;;;;;;;;;;;;;;7.94;41.45;102560.16;4938677;28;128083;-68
2023/02/09 06:20:53;;;;;;;;;;;;;;;7.94;41.34;102560.16;4955583;28;117729;-67
2023/02/09 06:23:19;;;;;;;;;;;;;;;7.94;41.19;102552.97;4956278;28;113161;-67
2023/02/09 06:25:45;;;;;;;;;;;;;;;7.94;41.01;102546.72;4956487;28;129506;-67
2023/02/09 06:28:11;;;;;;;;;;;;;;;7.94;41.08;102544.03;4938892;28;127942;-67
2023/02/09 06:30:37;;;;;;;;;;;;;;;7.92;40.77;102544.25;4959252;28;115501;-67
2023/02/09 06:33:02;;;;;;;;;;;;;;;7.93;41.20;102543.22;4934781;28;128304;-67
2023/02/09 06:35:28;;;;;;;;;;;;;;;7.93;41.31;102543.22;4940347;28;124896;-67
2023/02/09 06:37:58;;;;;;;;;;;;;;;7.94;41.01;102547.59;4926991;28;129425;-67
2023/02/09 06:40:23;;;;;;;;;;;;;;;7.94;40.72;102555.66;4957522;28;117624;-67
2023/02/09 06:42:49;;;;;;;;;;;;;;;7.94;40.99;102552.97;4937591;28;126943;-67
2023/02/09 06:45:16;;;;;;;;;;;;;;;7.95;41.15;102554.59;4955608;28;127988;-68
2023/02/09 06:47:42;;;;;;;;;;;;;;;7.96;40.78;102555.44;4940188;28;109539;-67
2023/02/09 06:50:09;;;;;;;;;;;;;;;7.97;40.84;102557.91;4941189;28;98158;-67
2023/02/09 06:52:35;;;;;;;;;;;;;;;7.98;40.99;102566.81;4954224;28;98861;-67
2023/02/09 06:55:00;;;;;;;;;;;;;;;8.01;40.91;102579.81;4923859;28;127884;-67
2023/02/09 06:57:28;;;;;;;;;;;;;;;8.02;40.65;102584.19;4955282;28;125808;-67
2023/02/09 06:59:54;;;;;;;;;;;;;;;8.03;40.90;102583.16;4935271;28;98912;-67
2023/02/09 07:02:20;;;;;;;;;;;;;;;8.05;41.08;102579.22;4920061;28;128970;-67
2023/02/09 07:04:46;;;;;;;;;;;;;;;8.07;41.25;102579.03;4957190;28;127279;-68
2023/02/09 07:07:12;;;;;;;;;;;;;;;8.09;40.65;102563.53;4938708;28;126120;-67
2023/02/09 07:09:38;;;;;;;;;;;;;;;8.12;41.06;102557.78;4923075;28;117573;-67
2023/02/09 07:12:04;;;;;;;;;;;;;;;8.15;40.70;102548.50;4957356;28;108313;-68
2023/02/09 07:14:30;;;;;;;;;;;;;;;8.18;40.92;102556.97;4934367;28;122049;-67
2023/02/09 07:16:55;;;;;;;;;;;;;;;8.22;40.82;102558.25;4931345;28;127723;-67
2023/02/09 07:19:21;;;;;;;;;;;;;;;8.27;40.50;102554.94;4919104;28;116706;-68
2023/02/09 07:21:48;;;;;;;;;;;;;;;8.33;40.52;102557.66;4935383;28;128824;-67
2023/02/09 07:24:14;;;;;;;;;;;;;;;8.39;40.77;102553.34;4903802;28;120243;-67
2023/02/09 07:26:40;;;;;;;;;;;;;;;8.46;40.65;102551.53;4919764;28;100005;-67
2023/02/09 07:29:05;;;;;;;;;;;;;;;8.56;40.58;102554.63;4919170;28;98104;-67
2023/02/09 07:31:31;;;;;;;;;;;;;;;8.65;39.98;102541.84;4934622;28;128249;-67
2023/02/09 07:33:57;;;;;;;;;;;;;;;8.77;40.37;102555.53;4919960;28;128702;-67
2023/02/09 07:36:23;;;;;;;;;;;;;;;8.88;40.44;102552.19;4921962;28;99656;-67
2023/02/09 07:38:49;;;;;;;;;;;;;;;8.98;39.83;102544.56;4935108;28;115866;-67
2023/02/09 07:41:19;;;;;;;;;;;;;;;9.03;40.62;102533.19;4936427;28;127821;-67
2023/02/09 07:43:45;;;;;;;;;;;;;;;9.10;40.49;102540.22;4935628;28;129081;-67
2023/02/09 07:46:13;;;;;;;;;;;;;;;9.23;39.88;102538.56;4935182;28;100192;-67
2023/02/09 07:48:39;;;;;;;;;;;;;;;9.39;40.28;102534.59;4909241;28;118917;-67
2023/02/09 07:51:05;;;;;;;;;;;;;;;9.58;40.18;102545.34;4911209;28;128174;-67
2023/02/09 07:53:31;;;;;;;;;;;;;;;9.79;40.27;102543.44;4921303;28;99801;-67
2023/02/09 07:55:57;;;;;;;;;;;;;;;10.03;40.05;102536.50;4935725;28;124231;-67
2023/02/09 07:58:23;;;;;;;;;;;;;;;10.30;39.72;102538.06;4931713;28;117935;-68
2023/02/09 08:00:49;;;;;;;;;;;;;;;10.49;39.51;102540.84;4937016;28;103313;-67
2023/02/09 08:03:18;;;;;;;;;;;;;;;10.74;39.68;102535.53;4928372;28;117731;-67
2023/02/09 08:06:02;;;;;;;;;;;;;;;11.07;39.33;102535.25;4935387;28;120150;-67
2023/02/09 08:08:27;;;;;;;;;;;;;;;11.42;39.29;102524.75;4902371;28;107464;-67
2023/02/09 08:10:58;;;;;;;;;;;;;;;11.85;38.76;102521.22;4934339;28;125498;-67
2023/02/09 08:13:25;;;;;;;;;;;;;;;12.33;38.70;102509.56;4934429;28;98446;-67
2023/02/09 08:15:52;;;;;;;;;;;;;;;12.75;38.57;102513.09;4935970;28;108050;-67
2023/02/09 08:18:23;;;;;;;;;;;;;;;13.25;38.46;102507.28;4932726;28;110433;-67
2023/02/09 08:20:49;;;;;;;;;;;;;;;13.84;37.92;102517.22;4933210;28;102857;-68
2023/02/09 08:23:17;;;;;;;;;;;;;;;14.41;37.80;102511.81;4933270;28;127966;-68
2023/02/09 08:25:43;;;;;;;;;;;;;;;14.94;37.83;102510.59;4949319;28;108356;-67
2023/02/09 08:28:09;;;;;;;;;;;;;;;15.43;37.59;102508.84;4935969;28;114048;-68
2023/02/09 08:30:35;;;;;;;;;;;;;;;15.90;37.57;102504.88;4938912;28;98475;-68
2023/02/09 08:33:01;;;;;;;;;;;;;;;16.35;37.52;102506.47;4913900;28;129029;-67
2023/02/09 08:35:27;;;;;;;;;;;;;;;16.80;37.40;102507.97;4917409;28;105561;-67
2023/02/09 08:37:53;;;;;;;;;;;;;;;17.28;37.36;102506.13;4934468;28;97948;-68
2023/02/09 08:40:19;;;;;;;;;;;;;;;17.74;37.39;102501.72;4934454;28;108391;-67
2023/02/09 08:42:44;;;;;;;;;;;;;;;18.21;37.49;102495.34;4911660;28;128417;-69
2023/02/09 08:45:10;;;;;;;;;;;;;;;18.69;37.38;102497.88;4934296;28;125576;-67
2023/02/09 08:47:37;;;;;;;;;;;;;;;19.13;37.30;102496.19;4917732;28;117459;-69
2023/02/09 08:50:03;;;;;;;;;;;;;;;19.62;37.23;102500.22;4918077;28;98770;-68
2023/02/09 08:52:29;;;;;;;;;;;;;;;20.10;37.26;102501.34;4934830;28;98305;-68
2023/02/09 08:54:55;;;;;;;;;;;;;;;20.62;37.20;102499.09;4913940;28;126630;-68
2023/02/09 08:57:21;;;;;;;;;;;;;;;21.16;37.19;102509.00;4917056;28;119755;-69
2023/02/09 08:59:47;;;;;;;;;;;;;;;21.74;36.95;102506.19;4915811;28;127853;-71
2023/02/09 09:02:13;;;;;;;;;;;;;;;22.34;36.99;102500.16;4898219;28;99800;-67
2023/02/09 09:04:39;;;;;;;;;;;;;;;22.93;37.03;102506.91;4914329;28;127261;-67
2023/02/09 09:07:05;;;;;;;;;;;;;;;23.45;36.88;102495.72;4918683;28;98291;-69
2023/02/09 09:09:31;;;;;;;;;;;;;;;23.95;36.69;102507.63;4914692;28;128465;-70
2023/02/09 09:11:57;;;;;;;;;;;;;;;24.46;36.87;102514.75;4917801;28;129234;-67
2023/02/09 09:14:25;;;;;;;;;;;;;;;25.04;36.68;102504.75;4917812;28;99107;-70
2023/02/09 09:16:51;;;;;;;;;;;;;;;25.79;36.29;102518.69;4934100;28;98161;-71
2023/02/09 09:19:17;;;;;;;;;;;;;;;26.40;36.29;102505.72;4933892;28;116659;-70
2023/02/09 09:21:43;;;;;;;;;;;;;;;26.78;36.29;102508.63;4935335;28;127124;-71
2023/02/09 09:24:09;;;;;;;;;;;;;;;27.01;36.28;102508.41;4919908;28;127070;-71
2023/02/09 09:26:34;;;;;;;;;;;;;;;27.19;36.47;102509.97;4915077;28;118842;-67
2023/02/09 09:29:00;;;;;;;;;;;;;;;27.39;36.69;102502.88;4902260;28;106906;-71
2023/02/09 09:31:26;;;;;;;;;;;;;;;27.45;36.88;102503.50;4916579;28;98649;-70
2023/02/09 09:33:53;;;;;;;;;;;;;;;27.44;37.14;102499.13;4899382;28;128186;-67
2023/02/09 09:36:19;;;;;;;;;;;;;;;27.48;37.40;102494.56;4905016;28;107210;-70
2023/02/09 09:38:46;;;;;;;;;;;;;;;27.54;37.21;102488.47;4934880;28;103335;-71
2023/02/09 09:41:30;;;;;;;;;;;;;;;27.63;37.14;102491.19;4918107;28;99199;-71
2023/02/09 09:43:56;;;;;;;;;;;;;;;27.73;37.38;102488.03;4931278;28;101098;-67
2023/02/09 09:46:36;;;;;;;;;;;;;;;27.79;37.64;102486.72;4916551;28;98286;-71
2023/02/09 09:49:01;;;;;;;;;;;;;;;27.76;37.37;102481.84;4917735;28;99088;-67
2023/02/09 09:51:38;;;;;;;;;;;;;;;27.70;37.61;102471.25;4915258;28;113273;-71
2023/02/09 09:54:06;;;;;;;;;;;;;;;27.59;37.82;102476.41;4901124;28;112790;-67
2023/02/09 09:56:32;;;;;;;;;;;;;;;27.58;37.94;102475.56;4917380;28;108540;-71
2023/02/09 09:58:58;;;;;;;;;;;;;;;27.58;37.85;102483.06;4917298;28;127989;-67
2023/02/09 10:01:24;;;;;;;;;;;;;;;27.62;38.05;102487.59;4918871;28;99543;-68
2023/02/09 10:03:50;;;;;;;;;;;;;;;27.47;38.30;102488.22;4910877;28;127561;-70
2023/02/09 10:06:18;;;;;;;;;;;;;;;27.24;38.36;102487.66;4933345;28;117876;-68
2023/02/09 10:08:58;;;;;;;;;;;;;;;26.98;38.54;102481.38;4901299;28;123931;-68
2023/02/09 10:11:41;;;;;;;;;;;;;;;26.67;38.55;102480.50;4917693;28;116332;-67
2023/02/09 10:14:08;;;;;;;;;;;;;;;26.36;38.83;102485.41;4930872;28;118806;-70
2023/02/09 10:16:36;;;;;;;;;;;;;;;26.08;38.61;102487.69;4934547;28;98330;-67
2023/02/09 10:19:15;;;;;;;;;;;;;;;25.76;38.84;102475.94;4935033;28;98149;-71
2023/02/09 10:21:41;;;;;;;;;;;;;;;25.43;39.10;102467.28;4950529;28;98394;-71
2023/02/09 10:24:19;;;;;;;;;;;;;;;25.16;39.06;102463.59;4933978;28;126461;-70
2023/02/09 10:26:59;;;;;;;;;;;;;;;24.89;38.92;102469.28;4921067;28;98754;-70
2023/02/09 10:29:25;;;;;;;;;;;;;;;24.59;39.27;102462.63;4924004;28;119548;-67
2023/02/09 10:32:05;;;;;;;;;;;;;;;24.32;39.28;102458.03;4922615;28;98382;-71
2023/02/09 10:34:37;;;;;;;;;;;;;;;24.01;39.39;102458.75;4936308;28;98412;-70
2023/02/09 10:37:18;;;;;;;;;;;;;;;23.73;39.15;102458.00;4955169;28;98372;-70
2023/02/09 10:39:45;;;;;;;;;;;;;;;23.42;39.60;102439.41;4933584;28;99178;-70
2023/02/09 10:42:32;;;;;;;;;;;;;;;23.18;39.43;102438.78;4937601;28;101046;-71
2023/02/09 10:45:09;;;;;;;;;;;;;;;22.92;39.52;102431.03;4934104;28;98067;-67
2023/02/09 10:47:35;;;;;;;;;;;;;;;22.71;39.37;102436.03;4953199;28;98219;-68
2023/02/09 10:50:01;;;;;;;;;;;;;;;22.54;39.42;102431.13;4953074;28;98964;-68
2023/02/09 10:52:34;;;;;;;;;;;;;;;22.41;39.53;102440.16;4952640;28;98221;-68
2023/02/09 10:55:06;;;;;;;;;;;;;;;22.30;39.25;102433.19;4936602;28;121552;-69
2023/02/09 10:57:35;;;;;;;;;;;;;;;22.25;39.25;102425.06;4939109;28;111929;-67
2023/02/09 11:00:16;;;;;;;;;;;;;;;22.26;39.35;102435.72;4939507;28;98840;-71
2023/02/09 11:03:00;;;;;;;;;;;;;;;22.39;39.10;102425.09;4956091;28;98124;-70
2023/02/09 11:05:28;;;;;;;;;;;;;;;22.78;38.96;102428.22;4940569;28;99071;-68
2023/02/09 11:08:10;;;;;;;;;;;;;;;23.70;37.95;102418.19;4939113;28;98035;-65
2023/02/09 11:10:40;;;;;;;;;;;;;;;25.01;37.06;102413.53;4953462;28;117960;-71
2023/02/09 11:13:20;;;;;;;;;;;;;;;26.06;36.11;102409.88;4938888;28;121206;-67
2023/02/09 11:16:17;;;;;;;;;;;;;;;26.80;35.87;102409.53;4940745;28;102118;-68
2023/02/09 11:18:44;;;;;;;;;;;;;;;27.39;35.63;102405.97;4937477;28;98276;-71
2023/02/09 11:21:35;;;;;;;;;;;;;;;27.48;35.60;102404.00;4922532;28;123960;-71
2023/02/09 11:24:19;;;;;;;;;;;;;;;27.26;35.96;102396.78;4938067;28;122238;-68
2023/02/09 11:26:54;;;;;;;;;;;;;;;26.50;36.94;102394.84;4955610;28;98347;-70
2023/02/09 11:29:35;;;;;;;;;;;;;;;25.77;37.57;102393.91;4923865;28;108251;-71
2023/02/09 11:32:13;;;;;;;;;;;;;;;25.15;37.85;102373.69;4921445;28;122288;-70
2023/02/09 11:34:50;;;;;;;;;;;;;;;24.68;38.13;102361.47;4939336;28;130304;-70
2023/02/09 11:37:37;;;;;;;;;;;;;;;24.26;38.50;102355.41;4950595;28;117851;-67
2023/02/09 11:40:40;;;;;;;;;;;;;;;23.87;38.62;102337.66;4952070;28;98307;-67
2023/02/09 11:43:09;;;;;;;;;;;;;;;23.48;38.66;102343.78;4922254;28;99149;-67
2023/02/09 11:45:45;;;;;;;;;;;;;;;23.17;38.87;102338.97;4957832;28;99169;-71
2023/02/09 11:48:18;;;;;;;;;;;;;;;22.81;39.25;102335.28;4956599;28;98365;-68
2023/02/09 11:51:09;;;;;;;;;;;;;;;22.42;39.33;102328.34;4939285;28;97968;-67
2023/02/09 11:54:11;;;;;;;;;;;;;;;21.93;39.46;102325.03;4955764;28;98297;-67
2023/02/09 11:56:45;;;;;;;;;;;;;;;21.42;39.69;102333.22;4944444;28;98715;-67
2023/02/09 11:59:30;;;;;;;;;;;;;;;21.03;39.84;102328.78;4939050;28;101641;-70
2023/02/09 12:02:14;;;;;;;;;;;;;;;20.64;39.84;102315.28;4954788;28;117669;-70
2023/02/09 12:04:52;;;;;;;;;;;;;;;20.26;40.07;102318.63;4955377;28;98269;-70
2023/02/09 12:08:08;;;;;;;;;;;;;;;19.92;40.27;102301.41;4953833;28;98270;-69
2023/02/09 12:10:58;;;;;;;;;;;;;;;19.53;40.27;102291.25;4900156;28;98910;-68
2023/02/09 12:14:03;;;;;;;;;;;;;;;19.21;40.39;102281.63;4955527;28;98162;-70
2023/02/09 12:16:34;;;;;;;;;;;;;;;18.85;40.45;102275.50;4923195;28;116192;-67
2023/02/09 12:18:59;;;;;;;;;;;;;;;18.59;40.37;102266.56;4936478;28;98278;-70
2023/02/09 12:21:33;;;;;;;;;;;;;;;18.33;40.53;102279.47;4925263;28;128519;-68
2023/02/09 12:24:00;;;;;;;;;;;;;;;18.07;40.53;102267.75;4938456;28;100677;-67
2023/02/09 12:26:35;;;;;;;;;;;;;;;17.84;40.57;102266.41;4917398;28;98335;-67
2023/02/09 12:29:23;;;;;;;;;;;;;;;17.59;40.63;102262.53;4955404;28;98898;-68
2023/02/09 12:32:07;;;;;;;;;;;;;;;17.36;40.61;102272.03;4919118;28;99534;-70
2023/02/09 12:34:40;;;;;;;;;;;;;;;17.14;40.52;102257.84;4955223;28;98141;-68
2023/02/09 12:37:12;;;;;;;;;;;;;;;16.96;40.49;102267.31;4938779;28;99958;-69
2023/02/09 12:39:58;;;;;;;;;;;;;;;16.79;40.50;102261.25;4956655;28;98686;-67
2023/02/09 12:42:26;;;;;;;;;;;;;;;16.60;40.66;102253.50;4954052;28;98692;-69
2023/02/09 12:44:54;;;;;;;;;;;;;;;16.45;40.60;102256.16;4939267;28;98265;-70
2023/02/09 12:47:52;;;;;;;;;;;;;;;16.30;40.37;102254.16;4954848;28;99263;-67
2023/02/09 12:50:22;;;;;;;;;;;;;;;16.13;40.48;102248.06;4952332;28;123748;-68
2023/02/09 12:53:22;;;;;;;;;;;;;;;16.02;40.39;102243.63;4933566;28;98112;-70
2023/02/09 12:56:01;;;;;;;;;;;;;;;15.88;40.58;102235.09;4954655;28;98146;-67
2023/02/09 12:58:42;;;;;;;;;;;;;;;15.76;40.58;102235.28;4952649;28;98280;-67
2023/02/09 13:01:08;;;;;;;;;;;;;;;15.65;40.52;102233.56;4937127;28;99459;-69